Time;durP1;ratioP1;P1;durP2;ratioP2;P2;SDS_P1;SDS_P2;PMS_P1;PMS_P2;Temp;Humidity;BMP_temperature;BMP_pressure;BME280_temperature;BME280_humidity;BME280_pressure;Samples;Min_cycle;Max_cycle;Signal;HPM_P1;HPM_P2
2023/07/23 00:00:41;;;;;;;11.13;4.57;;;18.20;98.00;;;;;;5019241;28;20091;-81
2023/07/23 00:03:07;;;;;;;8.93;4.55;;;18.20;98.10;;;;;;5038748;28;20097;-81
2023/07/23 00:05:33;;;;;;;7.90;4.78;;;18.20;98.20;;;;;;5026120;28;20048;-82
2023/07/23 00:07:59;;;;;;;8.35;4.40;;;18.20;98.20;;;;;;5044757;28;20029;-81
2023/07/23 00:10:25;;;;;;;8.38;4.43;;;18.20;98.30;;;;;;5041524;28;20098;-81
2023/07/23 00:12:51;;;;;;;8.15;4.75;;;18.20;98.40;;;;;;5040352;28;20035;-82
2023/07/23 00:15:18;;;;;;;6.65;4.75;;;18.20;98.10;;;;;;5022125;28;20021;-81
2023/07/23 00:17:43;;;;;;;6.80;4.78;;;18.20;97.90;;;;;;5024264;28;20680;-81
2023/07/23 00:20:10;;;;;;;10.50;5.20;;;18.20;98.00;;;;;;5031866;28;20025;-82
2023/07/23 00:22:37;;;;;;;8.32;4.18;;;18.20;98.10;;;;;;5040788;28;20017;-81
2023/07/23 00:25:03;;;;;;;10.95;5.10;;;18.20;98.00;;;;;;5041846;28;20036;-82
2023/07/23 00:27:28;;;;;;;8.55;4.55;;;18.20;98.00;;;;;;5023563;28;20032;-82
2023/07/23 00:29:54;;;;;;;7.13;4.85;;;18.20;98.10;;;;;;5023107;28;20024;-80
2023/07/23 00:32:19;;;;;;;6.28;4.53;;;18.20;98.00;;;;;;5037622;28;20492;-81
2023/07/23 00:34:45;;;;;;;6.88;4.18;;;18.10;98.00;;;;;;5022081;28;20055;-81
2023/07/23 00:37:11;;;;;;;9.18;4.65;;;18.10;97.70;;;;;;5023880;28;20017;-81
2023/07/23 00:39:37;;;;;;;10.40;4.25;;;18.10;97.90;;;;;;5039846;28;20024;-81
2023/07/23 00:42:02;;;;;;;8.70;4.13;;;18.20;97.80;;;;;;5027074;28;20496;-81
2023/07/23 00:44:28;;;;;;;5.78;4.70;;;18.10;97.90;;;;;;5030606;28;20017;-81
2023/07/23 00:46:56;;;;;;;5.57;4.53;;;18.20;97.90;;;;;;5028898;28;21754;-81
2023/07/23 00:49:22;;;;;;;7.45;4.32;;;18.20;97.90;;;;;;5023425;28;20443;-81
2023/07/23 00:51:48;;;;;;;10.35;4.70;;;18.20;97.70;;;;;;5042030;28;20068;-80
2023/07/23 00:54:13;;;;;;;10.60;5.18;;;18.20;97.70;;;;;;5023617;28;20614;-80
2023/07/23 00:56:42;;;;;;;5.05;4.40;;;18.10;97.70;;;;;;5041160;28;20028;-81
2023/07/23 00:59:08;;;;;;;12.43;4.38;;;18.10;97.90;;;;;;5020279;28;20473;-80
2023/07/23 01:01:34;;;;;;;6.35;4.32;;;18.00;97.80;;;;;;5018767;28;20447;-81
2023/07/23 01:04:02;;;;;;;6.45;4.82;;;18.00;97.70;;;;;;5022883;28;20381;-80
2023/07/23 01:06:29;;;;;;;7.95;4.70;;;18.00;97.70;;;;;;5021705;28;20338;-81
2023/07/23 01:08:58;;;;;;;17.08;4.38;;;18.00;97.70;;;;;;5039396;28;20028;-81
2023/07/23 01:11:28;;;;;;;7.47;4.97;;;17.90;97.60;;;;;;5036954;28;20029;-82
2023/07/23 01:13:55;;;;;;;10.02;4.80;;;17.90;97.80;;;;;;5039082;28;20040;-80
2023/07/23 01:16:23;;;;;;;8.00;4.45;;;17.90;97.80;;;;;;5037409;28;20017;-80
2023/07/23 01:18:48;;;;;;;11.52;5.00;;;17.90;98.00;;;;;;5038594;28;20115;-81
2023/07/23 01:21:16;;;;;;;6.28;4.50;;;17.90;98.00;;;;;;5037949;28;20170;-81
2023/07/23 01:23:43;;;;;;;7.35;4.93;;;17.80;97.90;;;;;;5034386;28;20516;-81
2023/07/23 01:26:09;;;;;;;8.00;5.13;;;17.80;98.00;;;;;;5036273;28;20120;-80
2023/07/23 01:28:35;;;;;;;7.88;4.90;;;17.80;98.30;;;;;;5028344;28;20162;-80
2023/07/23 01:31:00;;;;;;;9.18;4.82;;;17.70;97.80;;;;;;5029836;28;20484;-81
2023/07/23 01:33:29;;;;;;;10.63;4.97;;;17.60;97.90;;;;;;5017203;28;20028;-80
2023/07/23 01:35:57;;;;;;;9.65;4.40;;;17.60;98.00;;;;;;5026272;28;20385;-82
2023/07/23 01:38:23;;;;;;;8.63;4.80;;;17.50;98.10;;;;;;5020172;28;20416;-80
2023/07/23 01:40:50;;;;;;;7.38;4.82;;;17.50;98.10;;;;;;5021085;28;20024;-80
2023/07/23 01:43:16;;;;;;;8.82;4.60;;;17.50;98.20;;;;;;5041576;28;20500;-80
2023/07/23 01:45:46;;;;;;;5.75;4.85;;;17.50;98.20;;;;;;5038624;28;20025;-80
2023/07/23 01:48:13;;;;;;;12.27;5.10;;;17.40;98.20;;;;;;5022868;28;20030;-80
2023/07/23 01:50:39;;;;;;;9.15;5.00;;;17.40;98.30;;;;;;5019502;28;20434;-79
2023/07/23 01:53:06;;;;;;;6.43;4.75;;;17.30;98.40;;;;;;5021330;28;20470;-80
2023/07/23 01:55:32;;;;;;;7.18;4.38;;;17.30;98.60;;;;;;5041277;28;20094;-80
2023/07/23 01:57:57;;;;;;;8.05;5.22;;;17.20;98.60;;;;;;5037898;28;21113;-80
2023/07/23 02:00:23;;;;;;;9.02;5.22;;;17.20;98.70;;;;;;5043676;28;20021;-80
2023/07/23 02:02:49;;;;;;;8.30;5.20;;;17.20;98.70;;;;;;5047988;28;20052;-81
2023/07/23 02:05:14;;;;;;;7.07;4.70;;;17.20;98.70;;;;;;5048603;28;20063;-80
2023/07/23 02:07:40;;;;;;;8.20;4.57;;;17.20;98.80;;;;;;5029217;28;20433;-79
2023/07/23 02:10:07;;;;;;;7.78;4.70;;;17.20;98.90;;;;;;5037266;28;20485;-80
2023/07/23 02:12:33;;;;;;;7.63;5.03;;;17.10;98.90;;;;;;5039840;28;20021;-80
2023/07/23 02:14:59;;;;;;;9.95;4.57;;;17.10;98.80;;;;;;5021675;28;20695;-80
2023/07/23 02:17:25;;;;;;;11.55;4.97;;;17.20;98.90;;;;;;5041448;28;20112;-80
2023/07/23 02:19:50;;;;;;;8.93;4.53;;;17.10;98.70;;;;;;5044232;28;20075;-79
2023/07/23 02:22:16;;;;;;;7.75;4.25;;;17.10;98.60;;;;;;5033973;28;20052;-81
2023/07/23 02:24:42;;;;;;;6.72;4.38;;;17.10;98.70;;;;;;5020588;28;20163;-79
2023/07/23 02:27:07;;;;;;;8.20;4.38;;;17.00;98.40;;;;;;5024749;28;20028;-80
2023/07/23 02:29:33;;;;;;;9.23;4.88;;;17.00;98.60;;;;;;5024138;28;20025;-79
2023/07/23 02:31:59;;;;;;;7.90;4.55;;;17.10;98.50;;;;;;5036212;28;20132;-80
2023/07/23 02:34:24;;;;;;;11.90;4.90;;;17.00;98.40;;;;;;5042116;28;20036;-82
2023/07/23 02:36:50;;;;;;;13.07;4.70;;;17.10;98.50;;;;;;5026080;28;20147;-80
2023/07/23 02:39:16;;;;;;;8.98;4.35;;;17.20;98.40;;;;;;5026229;28;20025;-80
2023/07/23 02:41:41;;;;;;;8.07;4.38;;;17.20;98.30;;;;;;5024148;28;20021;-80
2023/07/23 02:44:12;;;;;;;9.23;4.60;;;17.30;98.30;;;;;;5026814;28;20032;-80
2023/07/23 02:46:37;;;;;;;5.35;4.15;;;17.30;98.20;;;;;;5040079;28;20099;-79
2023/07/23 02:49:04;;;;;;;12.77;4.65;;;17.40;98.10;;;;;;5024540;28;20447;-80
2023/07/23 02:51:29;;;;;;;7.00;3.97;;;17.40;98.00;;;;;;5040183;28;20040;-79
2023/07/23 02:53:55;;;;;;;5.93;4.15;;;17.50;97.90;;;;;;5038543;28;20044;-80
2023/07/23 02:56:20;;;;;;;9.07;4.25;;;17.50;97.70;;;;;;5042327;28;20449;-79
2023/07/23 02:58:46;;;;;;;12.20;4.20;;;17.50;97.60;;;;;;5024105;28;20033;-80
2023/07/23 03:01:12;;;;;;;10.18;5.03;;;17.40;97.60;;;;;;5043383;28;20017;-80
2023/07/23 03:03:37;;;;;;;10.38;4.07;;;17.30;97.50;;;;;;5039885;28;20056;-80
2023/07/23 03:06:06;;;;;;;9.93;4.38;;;17.40;97.80;;;;;;5021010;28;20511;-79
2023/07/23 03:08:32;;;;;;;11.73;4.50;;;17.40;97.50;;;;;;5027704;28;20013;-79
2023/07/23 03:10:57;;;;;;;15.55;4.85;;;17.40;97.50;;;;;;5042417;28;20480;-80
2023/07/23 03:13:23;;;;;;;7.15;4.50;;;17.40;97.20;;;;;;5021937;28;20073;-80
2023/07/23 03:15:49;;;;;;;6.32;4.45;;;17.40;97.40;;;;;;5037490;28;20032;-79
2023/07/23 03:18:14;;;;;;;9.20;4.80;;;17.40;97.40;;;;;;5026518;28;20029;-79
2023/07/23 03:20:40;;;;;;;8.07;4.45;;;17.50;97.50;;;;;;5034369;28;20038;-79
2023/07/23 03:23:08;;;;;;;7.13;4.60;;;17.50;97.40;;;;;;5039058;28;20100;-79
2023/07/23 03:25:34;;;;;;;6.65;4.30;;;17.60;97.30;;;;;;5037667;28;20451;-79
2023/07/23 03:28:01;;;;;;;8.02;4.78;;;17.60;97.20;;;;;;5028520;28;20103;-80
2023/07/23 03:30:27;;;;;;;14.88;4.95;;;17.60;97.10;;;;;;5023390;28;20519;-79
2023/07/23 03:32:53;;;;;;;13.65;5.28;;;17.60;97.00;;;;;;5040011;28;20112;-80
2023/07/23 03:35:20;;;;;;;9.13;4.90;;;17.60;97.00;;;;;;5026866;28;20029;-79
2023/07/23 03:37:46;;;;;;;11.77;5.13;;;17.70;97.20;;;;;;5044444;28;20025;-80
2023/07/23 03:40:14;;;;;;;8.93;4.85;;;17.60;97.20;;;;;;5042350;28;20625;-79
2023/07/23 03:42:42;;;;;;;12.40;4.68;;;17.60;97.10;;;;;;5046018;28;20717;-79
2023/07/23 03:45:08;;;;;;;10.02;5.47;;;17.50;97.20;;;;;;5041132;28;20028;-79
2023/07/23 03:47:34;;;;;;;9.48;5.20;;;17.60;97.20;;;;;;5029065;28;20548;-80
2023/07/23 03:50:00;;;;;;;11.73;4.75;;;17.60;97.10;;;;;;5027560;28;20032;-79
2023/07/23 03:52:27;;;;;;;10.63;4.93;;;17.70;97.10;;;;;;5042275;28;20383;-79
2023/07/23 03:54:53;;;;;;;11.43;5.32;;;17.60;97.20;;;;;;5038492;28;20033;-79
2023/07/23 03:57:19;;;;;;;7.25;4.93;;;17.60;97.20;;;;;;5030697;28;20039;-79
2023/07/23 03:59:46;;;;;;;15.60;4.85;;;17.60;96.90;;;;;;5027413;28;20021;-79
2023/07/23 04:02:12;;;;;;;13.23;5.20;;;17.50;96.90;;;;;;5023610;28;20028;-79
2023/07/23 04:04:39;;;;;;;7.50;4.93;;;17.50;96.80;;;;;;5037796;28;20100;-80
2023/07/23 04:07:05;;;;;;;7.60;5.47;;;17.60;96.60;;;;;;5035395;28;20051;-78
2023/07/23 04:09:31;;;;;;;8.70;5.47;;;17.60;96.50;;;;;;5025897;28;20234;-79
2023/07/23 04:11:57;;;;;;;12.20;5.70;;;17.60;96.30;;;;;;5025480;28;20075;-80
2023/07/23 04:14:24;;;;;;;10.48;5.10;;;17.60;96.00;;;;;;5041140;28;20134;-81
2023/07/23 04:16:49;;;;;;;11.77;5.38;;;17.70;96.00;;;;;;5026771;28;20713;-79
2023/07/23 04:19:15;;;;;;;12.20;5.03;;;17.70;95.80;;;;;;5022444;28;20116;-79
2023/07/23 04:21:43;;;;;;;10.30;5.28;;;17.60;95.40;;;;;;5040459;28;20032;-79
2023/07/23 04:24:09;;;;;;;13.23;5.45;;;17.60;95.50;;;;;;5016230;28;20087;-80
2023/07/23 04:26:34;;;;;;;8.18;4.75;;;17.70;95.40;;;;;;5037656;28;20050;-79
2023/07/23 04:29:00;;;;;;;12.00;4.68;;;17.70;95.10;;;;;;5042132;28;20104;-81
2023/07/23 04:31:26;;;;;;;8.63;4.80;;;17.70;94.80;;;;;;5039098;28;20025;-79
2023/07/23 04:33:52;;;;;;;5.93;4.30;;;17.90;94.10;;;;;;5040963;28;20025;-80
2023/07/23 04:36:18;;;;;;;9.70;4.80;;;17.90;93.90;;;;;;5040094;28;20083;-80
2023/07/23 04:38:44;;;;;;;8.65;4.57;;;17.80;93.70;;;;;;5039826;28;20033;-79
2023/07/23 04:41:11;;;;;;;9.23;4.75;;;17.90;93.70;;;;;;5024148;28;20026;-79
2023/07/23 04:43:38;;;;;;;18.05;5.00;;;18.00;93.20;;;;;;5024006;28;20423;-80
2023/07/23 04:46:06;;;;;;;11.15;4.82;;;18.00;93.00;;;;;;5038352;28;20574;-80
2023/07/23 04:48:33;;;;;;;7.35;4.38;;;18.00;92.60;;;;;;5031785;28;20033;-79
2023/07/23 04:51:03;;;;;;;8.25;4.00;;;18.10;92.70;;;;;;5039251;28;20052;-80
2023/07/23 04:53:29;;;;;;;4.72;4.25;;;18.10;92.20;;;;;;5039059;28;20010;-78
2023/07/23 04:55:56;;;;;;;9.88;4.57;;;18.10;91.90;;;;;;5024550;28;20040;-79
2023/07/23 04:58:23;;;;;;;11.57;4.82;;;18.30;92.10;;;;;;5020425;28;20024;-79
2023/07/23 05:00:49;;;;;;;5.82;4.43;;;18.30;91.80;;;;;;5041382;28;20627;-79
2023/07/23 05:03:17;;;;;;;9.07;4.05;;;18.40;91.60;;;;;;5025527;28;20128;-79
2023/07/23 05:05:46;;;;;;;7.85;4.05;;;18.50;91.50;;;;;;5022324;28;20059;-80
2023/07/23 05:08:12;;;;;;;9.10;4.28;;;18.50;91.30;;;;;;5036983;28;20024;-79
2023/07/23 05:10:38;;;;;;;6.72;4.10;;;18.50;91.30;;;;;;5040624;28;20033;-83
2023/07/23 05:13:07;;;;;;;5.90;4.22;;;18.60;91.30;;;;;;5040809;28;20032;-79
2023/07/23 05:15:32;;;;;;;6.40;3.83;;;18.70;91.20;;;;;;5029900;28;20017;-79
2023/07/23 05:17:58;;;;;;;6.07;3.95;;;18.80;91.10;;;;;;5019920;28;20488;-79
2023/07/23 05:20:23;;;;;;;5.57;4.20;;;18.70;91.20;;;;;;5040803;28;20026;-79
2023/07/23 05:22:50;;;;;;;8.60;4.43;;;18.80;91.20;;;;;;5034040;28;20033;-79
2023/07/23 05:25:18;;;;;;;10.65;4.15;;;18.70;91.20;;;;;;5043701;28;20287;-79
2023/07/23 05:27:44;;;;;;;9.95;4.40;;;18.70;91.00;;;;;;5021356;28;20496;-79
2023/07/23 05:30:10;;;;;;;6.13;4.38;;;18.80;91.10;;;;;;5022731;28;20029;-79
2023/07/23 05:32:36;;;;;;;7.05;4.47;;;18.80;90.90;;;;;;5040730;28;20064;-79
2023/07/23 05:35:02;;;;;;;8.68;3.70;;;18.80;90.80;;;;;;5014534;28;20477;-80
2023/07/23 05:37:28;;;;;;;5.13;3.47;;;18.80;90.70;;;;;;5039792;28;20031;-81
2023/07/23 05:39:53;;;;;;;4.20;3.50;;;19.00;90.40;;;;;;5041703;28;20489;-80
2023/07/23 05:42:20;;;;;;;7.55;4.38;;;19.20;90.30;;;;;;5040658;28;20017;-81
2023/07/23 05:44:46;;;;;;;4.10;3.70;;;19.20;90.30;;;;;;5039722;28;20041;-81
2023/07/23 05:47:12;;;;;;;4.72;3.58;;;19.20;89.70;;;;;;5039647;28;20096;-81
2023/07/23 05:49:38;;;;;;;7.95;3.70;;;19.30;89.10;;;;;;5039845;28;20013;-80
2023/07/23 05:52:04;;;;;;;7.00;3.90;;;19.40;89.70;;;;;;5029130;28;20149;-82
2023/07/23 05:54:33;;;;;;;6.55;3.63;;;19.40;89.70;;;;;;5044405;28;20029;-82
2023/07/23 05:56:59;;;;;;;5.40;3.22;;;19.30;89.80;;;;;;5026381;28;20451;-82
2023/07/23 05:59:27;;;;;;;4.75;3.70;;;19.40;89.20;;;;;;5044200;28;20029;-81
2023/07/23 06:01:52;;;;;;;4.78;3.10;;;19.40;89.20;;;;;;5043228;28;20028;-81
2023/07/23 06:04:20;;;;;;;5.53;3.75;;;19.40;89.10;;;;;;5040228;28;20025;-80
2023/07/23 06:06:47;;;;;;;4.80;3.60;;;19.40;89.10;;;;;;5019558;28;20022;-81
2023/07/23 06:09:14;;;;;;;5.28;3.58;;;19.40;89.10;;;;;;5046647;28;20056;-81
2023/07/23 06:11:39;;;;;;;5.28;3.58;;;19.50;89.90;;;;;;5045181;28;20134;-80
2023/07/23 06:14:08;;;;;;;7.68;3.65;;;19.50;88.70;;;;;;5023656;28;20071;-79
2023/07/23 06:16:33;;;;;;;5.30;3.67;;;19.60;88.60;;;;;;5026191;28;20068;-80
2023/07/23 06:18:59;;;;;;;4.88;3.20;;;19.70;88.20;;;;;;5039956;28;20021;-80
2023/07/23 06:21:25;;;;;;;10.50;3.70;;;19.80;87.50;;;;;;5041387;28;20021;-80
2023/07/23 06:23:54;;;;;;;4.85;3.42;;;19.70;87.30;;;;;;5029752;28;20612;-80
2023/07/23 06:26:21;;;;;;;4.43;3.17;;;19.80;87.60;;;;;;5043129;28;20021;-80
2023/07/23 06:28:47;;;;;;;8.50;3.70;;;19.70;87.10;;;;;;5044807;28;20029;-80
2023/07/23 06:31:13;;;;;;;4.60;2.67;;;19.70;87.40;;;;;;5042782;28;20037;-79
2023/07/23 06:33:40;;;;;;;4.00;3.17;;;19.60;87.00;;;;;;5023906;28;20131;-80
2023/07/23 06:36:08;;;;;;;3.67;2.95;;;19.50;87.90;;;;;;5042733;28;20037;-80
2023/07/23 06:38:34;;;;;;;8.35;3.65;;;19.70;87.70;;;;;;5041211;28;20036;-80
2023/07/23 06:41:00;;;;;;;10.25;2.92;;;19.60;88.10;;;;;;5045510;28;20040;-80
2023/07/23 06:43:26;;;;;;;4.57;2.88;;;19.70;88.40;;;;;;5041012;28;20028;-80
2023/07/23 06:45:51;;;;;;;5.00;3.10;;;19.80;89.50;;;;;;5041586;28;20029;-81
2023/07/23 06:48:19;;;;;;;5.60;2.95;;;19.90;88.70;;;;;;5022908;28;20454;-79
2023/07/23 06:50:47;;;;;;;3.63;2.90;;;19.80;86.80;;;;;;5041504;28;20060;-80
2023/07/23 06:53:13;;;;;;;5.88;3.22;;;19.80;88.80;;;;;;5034873;28;20036;-80
2023/07/23 06:56:01;;;;;;;5.68;3.25;;;19.90;89.00;;;;;;5043246;28;20033;-83
2023/07/23 06:58:28;;;;;;;5.90;2.70;;;19.80;87.80;;;;;;5027853;28;20021;-80
2023/07/23 07:00:54;;;;;;;4.10;2.80;;;20.00;87.20;;;;;;5020614;28;20063;-80
2023/07/23 07:03:20;;;;;;;6.25;2.78;;;20.10;87.00;;;;;;5039980;28;20745;-81
2023/07/23 07:05:46;;;;;;;3.47;2.95;;;20.00;87.10;;;;;;5043383;28;20052;-82
2023/07/23 07:08:12;;;;;;;4.60;3.20;;;20.00;87.00;;;;;;5037939;28;20353;-81
2023/07/23 07:10:40;;;;;;;9.63;3.05;;;20.10;87.10;;;;;;5043235;28;20052;-80
2023/07/23 07:13:09;;;;;;;3.28;2.90;;;20.10;87.70;;;;;;5046182;28;20029;-80
2023/07/23 07:15:39;;;;;;;5.18;2.55;;;20.00;87.10;;;;;;5037842;28;20099;-80
2023/07/23 07:18:05;;;;;;;5.00;2.97;;;20.10;87.30;;;;;;5026798;28;21032;-80
2023/07/23 07:20:33;;;;;;;3.42;2.65;;;20.10;87.50;;;;;;5043467;28;20100;-81
2023/07/23 07:22:59;;;;;;;9.15;3.17;;;20.10;86.60;;;;;;5022306;28;20033;-81
2023/07/23 07:25:27;;;;;;;4.32;3.15;;;20.20;87.10;;;;;;5023902;28;20028;-80
2023/07/23 07:27:53;;;;;;;4.93;2.55;;;20.20;87.50;;;;;;5044466;28;20025;-81
2023/07/23 07:30:21;;;;;;;11.57;2.90;;;20.10;88.30;;;;;;5042824;28;20044;-82
2023/07/23 07:32:49;;;;;;;4.30;2.90;;;19.80;90.30;;;;;;5044763;28;20029;-81
2023/07/23 07:35:15;;;;;;;7.28;2.92;;;19.60;90.20;;;;;;5044387;28;20045;-81
2023/07/23 07:37:43;;;;;;;4.40;2.92;;;19.30;90.90;;;;;;5026418;28;20653;-82
2023/07/23 07:40:10;;;;;;;6.47;2.72;;;19.10;90.90;;;;;;5045118;28;20118;-80
2023/07/23 07:42:36;;;;;;;4.50;3.15;;;19.00;91.30;;;;;;5021570;28;20040;-81
2023/07/23 07:45:04;;;;;;;5.93;3.40;;;19.10;91.60;;;;;;5044597;28;20021;-82
2023/07/23 07:47:30;;;;;;;7.38;3.30;;;18.80;92.40;;;;;;5040256;28;20039;-80
2023/07/23 07:49:55;;;;;;;12.77;3.35;;;18.70;92.50;;;;;;5035897;28;20025;-81
2023/07/23 07:52:21;;;;;;;8.50;3.15;;;18.70;92.70;;;;;;5042777;28;20016;-81
2023/07/23 07:54:46;;;;;;;143.98;58.33;;;18.70;92.40;;;;;;5025796;28;20394;-81
2023/07/23 07:57:13;;;;;;;5.57;3.33;;;18.80;92.50;;;;;;5035263;28;20025;-80
2023/07/23 07:59:38;;;;;;;5.38;2.67;;;18.70;92.50;;;;;;5026349;28;20061;-81
2023/07/23 08:02:04;;;;;;;4.70;3.17;;;18.50;93.00;;;;;;5041959;28;20067;-80
2023/07/23 08:04:30;;;;;;;4.40;3.05;;;18.30;94.10;;;;;;5041518;28;20834;-81
2023/07/23 08:06:57;;;;;;;6.80;3.28;;;18.10;94.70;;;;;;5040899;28;20020;-80
2023/07/23 08:09:24;;;;;;;5.85;3.50;;;18.00;95.30;;;;;;5041585;28;20021;-80
2023/07/23 08:11:50;;;;;;;7.25;3.30;;;17.60;95.70;;;;;;5026279;28;20037;-82
2023/07/23 08:14:19;;;;;;;4.88;3.33;;;17.80;96.00;;;;;;5025387;28;20116;-82
2023/07/23 08:16:45;;;;;;;6.22;3.58;;;17.80;96.10;;;;;;5040106;28;20036;-82
2023/07/23 08:19:11;;;;;;;6.45;3.30;;;17.70;95.90;;;;;;5042068;28;20383;-80
2023/07/23 08:21:37;;;;;;;7.10;3.13;;;17.80;96.20;;;;;;4997832;28;20048;-81
2023/07/23 08:24:03;;;;;;;6.30;3.08;;;17.70;96.40;;;;;;5021981;28;20742;-80
2023/07/23 08:26:32;;;;;;;4.97;3.33;;;17.80;96.20;;;;;;5034097;28;20048;-81
2023/07/23 08:29:04;;;;;;;5.07;3.40;;;17.90;96.10;;;;;;5016091;28;20052;-81
2023/07/23 08:31:30;;;;;;;8.68;3.33;;;17.90;96.20;;;;;;5035431;28;20033;-80
2023/07/23 08:34:02;;;;;;;7.90;3.10;;;17.90;96.00;;;;;;5038709;28;20049;-82
2023/07/23 08:36:28;;;;;;;7.53;3.40;;;18.00;96.30;;;;;;5021748;28;20554;-80
2023/07/23 08:38:57;;;;;;;9.68;3.28;;;18.10;96.20;;;;;;5033264;28;20041;-84
2023/07/23 08:41:26;;;;;;;361.88;154.98;;;18.10;95.90;;;;;;5008882;28;20021;-83
2023/07/23 08:44:15;;;;;;;5.97;3.40;;;18.20;95.90;;;;;;5019824;28;20021;-84
2023/07/23 08:46:45;;;;;;;3.95;3.00;;;18.20;95.80;;;;;;5019290;28;20081;-84
2023/07/23 08:49:12;;;;;;;7.18;2.92;;;18.50;95.60;;;;;;5005643;28;20029;-85
2023/07/23 08:51:46;;;;;;;6.47;3.38;;;18.50;95.80;;;;;;5038459;28;20029;-83
2023/07/23 08:54:13;;;;;;;14.60;3.38;;;18.40;95.80;;;;;;5042368;28;20550;-83
2023/07/23 08:56:41;;;;;;;7.43;3.38;;;18.40;96.40;;;;;;5020459;28;20289;-82
2023/07/23 08:59:08;;;;;;;4.45;3.35;;;18.60;95.50;;;;;;5011411;28;20028;-82
2023/07/23 09:01:36;;;;;;;4.30;3.00;;;18.50;95.40;;;;;;5034849;28;20107;-81
2023/07/23 09:04:07;;;;;;;4.78;3.22;;;18.60;94.80;;;;;;5035868;28;20033;-81
2023/07/23 09:06:33;;;;;;;8.02;3.22;;;18.50;95.10;;;;;;5016156;28;20119;-83
2023/07/23 09:09:08;;;;;;;6.13;3.20;;;18.70;95.10;;;;;;5022059;28;20087;-81
2023/07/23 09:11:34;;;;;;;3.53;2.75;;;18.70;95.10;;;;;;5031311;28;20041;-82
2023/07/23 09:14:11;;;;;;;5.05;2.50;;;18.90;94.80;;;;;;5030088;28;20374;-82
2023/07/23 09:16:46;;;;;;;3.20;2.42;;;18.90;94.80;;;;;;5015460;28;20052;-81
2023/07/23 09:19:13;;;;;;;3.25;2.70;;;18.90;95.10;;;;;;5020402;28;20021;-86
2023/07/23 09:21:41;;;;;;;4.07;2.45;;;18.70;95.30;;;;;;5040262;28;20028;-86
2023/07/23 09:24:14;;;;;;;5.68;2.85;;;18.70;95.00;;;;;;5012216;28;20030;-84
2023/07/23 09:26:40;;;;;;;3.67;2.38;;;18.80;94.90;;;;;;5028230;28;20083;-83
2023/07/23 09:29:11;;;;;;;3.00;2.60;;;18.80;94.70;;;;;;5015570;28;20489;-84
2023/07/23 09:31:42;;;;;;;5.43;2.28;;;18.90;94.80;;;;;;5038502;28;20456;-85
2023/07/23 09:34:07;;;;;;;2.55;2.35;;;18.80;95.10;;;;;;5034786;28;20095;-85
2023/07/23 09:36:33;;;;;;;7.43;2.40;;;18.80;95.40;;;;;;5042509;28;20020;-90
2023/07/23 09:39:04;;;;;;;11.52;3.70;;;18.80;95.40;;;;;;5041933;28;20040;-85
2023/07/23 09:41:35;;;;;;;2.20;2.03;;;18.80;95.50;;;;;;5043077;28;20020;-84
2023/07/23 09:44:09;;;;;;;2.92;2.35;;;18.90;95.40;;;;;;5019869;28;20499;-85
2023/07/23 09:46:40;;;;;;;2.95;2.45;;;19.00;95.10;;;;;;5019713;28;20353;-83
2023/07/23 09:49:08;;;;;;;3.35;2.10;;;19.00;95.30;;;;;;5037104;28;20036;-83
2023/07/23 09:51:38;;;;;;;2.35;2.15;;;18.90;95.40;;;;;;5021396;28;20934;-82
2023/07/23 09:54:07;;;;;;;2.72;1.95;;;18.90;95.50;;;;;;5033891;28;20033;-83
2023/07/23 09:56:34;;;;;;;6.43;1.90;;;19.00;95.50;;;;;;5032431;28;20036;-83
2023/07/23 09:59:00;;;;;;;7.03;2.05;;;19.10;95.20;;;;;;5019421;28;20029;-84
2023/07/23 10:01:26;;;;;;;4.25;2.05;;;19.00;95.20;;;;;;5036306;28;20025;-83
2023/07/23 10:03:53;;;;;;;1.88;1.77;;;19.00;95.70;;;;;;5039385;28;20029;-84
2023/07/23 10:06:23;;;;;;;3.70;2.47;;;18.90;95.90;;;;;;5025125;28;20025;-84
2023/07/23 10:08:52;;;;;;;4.47;2.20;;;18.80;96.10;;;;;;5037876;28;20021;-84
2023/07/23 10:11:19;;;;;;;4.82;2.28;;;18.80;96.90;;;;;;5017856;28;20040;-83
2023/07/23 10:13:50;;;;;;;3.13;1.98;;;18.90;96.60;;;;;;5023698;28;20025;-84
2023/07/23 10:16:22;;;;;;;2.53;1.70;;;18.80;96.70;;;;;;5020635;28;20392;-84
2023/07/23 10:18:50;;;;;;;3.20;1.95;;;18.80;96.60;;;;;;5016816;28;20040;-83
2023/07/23 10:21:16;;;;;;;4.00;1.90;;;18.70;96.70;;;;;;5037859;28;20140;-83
2023/07/23 10:23:42;;;;;;;3.20;2.42;;;18.90;96.90;;;;;;5040527;28;20100;-84
2023/07/23 10:26:21;;;;;;;4.18;1.92;;;18.90;96.50;;;;;;5037582;28;20111;-83
2023/07/23 10:28:56;;;;;;;1.60;1.50;;;18.90;96.70;;;;;;5022613;28;20040;-83
2023/07/23 10:31:23;;;;;;;3.45;1.88;;;18.90;96.90;;;;;;5038596;28;20025;-84
2023/07/23 10:33:50;;;;;;;3.00;1.70;;;19.00;97.10;;;;;;5041325;28;20398;-84
2023/07/23 10:36:17;;;;;;;1.60;1.50;;;19.10;97.20;;;;;;5023280;28;20075;-83
2023/07/23 10:38:43;;;;;;;2.85;1.60;;;18.90;97.50;;;;;;5042340;28;20071;-83
2023/07/23 10:41:08;;;;;;;1.85;1.58;;;19.10;97.70;;;;;;5025593;28;20033;-83
2023/07/23 10:43:42;;;;;;;3.22;1.63;;;18.80;98.70;;;;;;5026282;28;20036;-83
2023/07/23 10:46:10;;;;;;;2.08;1.58;;;18.80;98.50;;;;;;5019220;28;20021;-85
2023/07/23 10:48:44;;;;;;;1.70;1.60;;;18.90;98.70;;;;;;5011063;28;20230;-84
2023/07/23 10:51:12;;;;;;;4.55;1.48;;;18.80;98.90;;;;;;5016874;28;20467;-83
2023/07/23 10:53:55;;;;;;;2.15;1.63;;;18.80;99.20;;;;;;5032344;28;20512;-82
2023/07/23 10:56:38;;;;;;;;;;;18.60;99.40;;;;;;5022146;28;20078;-84
2023/07/23 10:59:06;;;;;;;5.22;1.92;;;18.70;99.80;;;;;;5021931;28;20200;-82
2023/07/23 11:01:39;;;;;;;2.70;1.65;;;18.70;99.70;;;;;;5016922;28;20063;-84
2023/07/23 11:04:12;;;;;;;2.15;1.73;;;18.70;99.80;;;;;;5039412;28;20476;-86
2023/07/23 11:06:41;;;;;;;1.75;1.50;;;18.60;99.80;;;;;;5022801;28;20406;-87
2023/07/23 11:09:11;;;;;;;2.22;1.90;;;18.60;99.90;;;;;;5000563;28;20056;-85
2023/07/23 11:11:42;;;;;;;1.75;1.60;;;18.50;99.90;;;;;;5005678;28;20029;-85
2023/07/23 11:14:28;;;;;;;3.25;1.83;;;18.40;99.90;;;;;;5019079;28;20025;-83
2023/07/23 11:16:56;;;;;;;2.08;1.60;;;18.50;99.90;;;;;;5003539;28;20286;-83
2023/07/23 11:19:26;;;;;;;2.78;1.83;;;18.60;99.90;;;;;;5000583;28;20021;-83
2023/07/23 11:21:57;;;;;;;2.55;1.67;;;18.80;99.90;;;;;;5002541;28;20138;-83
2023/07/23 11:24:27;;;;;;;3.03;1.67;;;18.70;99.90;;;;;;5001071;28;20033;-83
2023/07/23 11:26:59;;;;;;;1.55;1.45;;;18.60;99.90;;;;;;5022683;28;20042;-84
2023/07/23 11:29:25;;;;;;;3.30;1.40;;;18.60;99.90;;;;;;4995648;28;20099;-83
2023/07/23 11:31:52;;;;;;;4.93;1.55;;;18.60;99.90;;;;;;4998413;28;20246;-84
2023/07/23 11:34:18;;;;;;;1.88;1.42;;;18.70;99.90;;;;;;5019538;28;20593;-83
2023/07/23 11:36:43;;;;;;;1.92;1.50;;;18.70;99.90;;;;;;5019964;28;20033;-87
2023/07/23 11:39:11;;;;;;;2.38;1.73;;;18.50;99.90;;;;;;5000510;28;20110;-84
2023/07/23 11:41:39;;;;;;;1.88;1.58;;;18.50;99.90;;;;;;5002822;28;20025;-85
2023/07/23 11:44:05;;;;;;;2.55;1.42;;;18.60;99.90;;;;;;5001242;28;20029;-90
2023/07/23 11:46:36;;;;;;;2.35;1.38;;;18.70;99.90;;;;;;5020975;28;20036;-88
2023/07/23 11:49:02;;;;;;;3.03;1.90;;;18.80;99.90;;;;;;5031263;28;20013;-89
2023/07/23 11:51:31;;;;;;;2.03;1.40;;;18.80;99.90;;;;;;5002176;28;20068;-87
2023/07/23 11:54:02;;;;;;;1.90;1.48;;;19.00;99.80;;;;;;5003129;28;20033;-85
2023/07/23 11:56:30;;;;;;;2.72;1.42;;;19.00;99.80;;;;;;5023850;28;20044;-86
2023/07/23 11:59:03;;;;;;;4.53;1.80;;;19.00;99.50;;;;;;5019502;28;20034;-87
2023/07/23 12:01:29;;;;;;;4.45;1.60;;;19.00;99.80;;;;;;5021025;28;20022;-85
2023/07/23 12:03:59;;;;;;;1.67;1.50;;;19.00;99.90;;;;;;5022059;28;20013;-90
2023/07/23 12:06:27;;;;;;;2.15;1.95;;;19.00;99.70;;;;;;5028108;28;20022;-88
2023/07/23 12:08:53;;;;;;;3.08;1.90;;;18.90;99.40;;;;;;5040983;23;20120;-89
2023/07/23 12:11:19;;;;;;;2.25;1.65;;;19.00;99.90;;;;;;5012856;28;20050;-86
2023/07/23 12:13:55;;;;;;;1.83;1.73;;;18.80;99.90;;;;;;5016870;28;20030;-85
2023/07/23 12:16:43;;;;;;;2.33;1.92;;;18.90;99.90;;;;;;5001724;28;20026;-85
2023/07/23 12:19:14;;;;;;;2.83;1.55;;;18.90;99.70;;;;;;4991677;28;20034;-85
2023/07/23 12:21:44;;;;;;;2.97;2.20;;;19.00;99.70;;;;;;4977494;28;20113;-88
2023/07/23 12:24:28;;;;;;;9.13;1.70;;;18.90;99.80;;;;;;4982404;28;20110;-90
2023/07/23 12:26:59;;;;;;;2.60;1.50;;;19.00;99.30;;;;;;4980289;28;20533;-90
2023/07/23 12:29:27;;;;;;;4.72;1.48;;;19.20;99.50;;;;;;4991865;28;21020;-90
2023/07/23 12:32:09;;;;;;;1.92;1.38;;;19.40;99.10;;;;;;5008127;28;20039;-96
2023/07/23 12:34:35;;;;;;;2.03;1.50;;;19.40;98.80;;;;;;4987443;28;20034;-95
2023/07/23 12:37:02;;;;;;;2.28;1.55;;;19.50;98.40;;;;;;5001586;28;20029;-94
2023/07/23 12:39:28;;;;;;;1.42;1.20;;;19.50;98.50;;;;;;4986173;28;20021;-93
2023/07/23 12:41:54;;;;;;;2.00;1.40;;;19.50;98.50;;;;;;5000035;28;20035;-91
2023/07/23 12:44:19;;;;;;;3.47;2.25;;;19.50;98.20;;;;;;5000725;28;20022;-91
2023/07/23 12:46:45;;;;;;;1.60;1.50;;;19.70;98.00;;;;;;4998729;28;20128;-83